createdAt,value
2023-12-03T00:01:19.827Z,77.83
2023-12-03T00:04:05.018Z,77.33
2023-12-03T00:06:50.811Z,77.97
2023-12-03T00:09:38.089Z,77.85
2023-12-03T00:12:23.190Z,78.04
2023-12-03T00:15:09.629Z,78.18
2023-12-03T00:17:54.942Z,78.11
2023-12-03T00:20:40.357Z,78.01
2023-12-03T00:23:26.004Z,77.90
2023-12-03T00:26:11.584Z,77.57
2023-12-03T00:28:56.846Z,77.83
2023-12-03T00:31:42.156Z,77.62
2023-12-03T00:34:27.572Z,77.90
2023-12-03T00:37:13.057Z,77.83
2023-12-03T00:39:58.359Z,78.41
2023-12-03T00:42:43.740Z,78.46
2023-12-03T00:45:29.048Z,78.45
2023-12-03T00:48:14.646Z,78.36
2023-12-03T00:50:59.724Z,78.49
2023-12-03T00:53:45.893Z,79.28
2023-12-03T00:56:31.075Z,79.46
2023-12-03T00:59:16.392Z,79.06
2023-12-03T01:02:01.767Z,79.00
2023-12-03T01:04:47.317Z,78.97
2023-12-03T01:07:32.759Z,78.90
2023-12-03T01:10:18.158Z,78.74
2023-12-03T01:13:03.663Z,78.54
2023-12-03T01:15:49.405Z,78.77
2023-12-03T01:18:35.031Z,78.65
2023-12-03T01:21:20.384Z,78.99
2023-12-03T01:24:05.775Z,79.40
2023-12-03T01:26:51.267Z,79.34
2023-12-03T01:29:36.646Z,79.42
2023-12-03T01:32:21.982Z,78.96
2023-12-03T01:35:08.089Z,79.24
2023-12-03T01:37:53.344Z,78.84
2023-12-03T01:40:39.224Z,78.90
2023-12-03T01:43:24.321Z,79.05
2023-12-03T01:46:09.741Z,78.80
2023-12-03T01:48:55.807Z,78.99
2023-12-03T01:51:41.390Z,78.96
2023-12-03T01:54:29.049Z,79.12
2023-12-03T01:57:16.296Z,79.12
2023-12-03T02:00:01.711Z,78.86
2023-12-03T02:02:47.228Z,78.63
2023-12-03T02:05:32.664Z,78.53
2023-12-03T02:08:17.920Z,78.72
2023-12-03T02:11:05.442Z,78.70
2023-12-03T02:13:51.127Z,78.23
2023-12-03T02:16:36.909Z,78.41
2023-12-03T02:19:22.207Z,78.46
2023-12-03T02:22:07.439Z,78.29
2023-12-03T02:24:53.119Z,78.72
2023-12-03T02:27:38.617Z,79.26
2023-12-03T02:30:24.116Z,78.51
2023-12-03T02:33:09.566Z,78.45
2023-12-03T02:35:55.433Z,78.71
2023-12-03T02:38:40.795Z,79.07
2023-12-03T02:41:26.054Z,78.88
2023-12-03T02:44:11.459Z,78.89
2023-12-03T02:46:56.748Z,78.97
2023-12-03T02:49:42.159Z,78.74
2023-12-03T02:52:27.781Z,78.35
2023-12-03T02:55:13.148Z,78.38
2023-12-03T02:57:58.440Z,78.94
2023-12-03T03:00:44.013Z,79.05
2023-12-03T03:03:29.460Z,78.86
2023-12-03T03:06:14.817Z,79.09
2023-12-03T03:09:00.036Z,79.29
2023-12-03T03:11:45.373Z,79.07
2023-12-03T03:14:30.626Z,79.29
2023-12-03T03:17:15.890Z,79.29
2023-12-03T03:20:01.087Z,79.22
2023-12-03T03:22:46.502Z,78.79
2023-12-03T03:25:31.940Z,79.00
2023-12-03T03:28:17.464Z,78.71
2023-12-03T03:31:02.972Z,78.69
2023-12-03T03:33:48.348Z,78.66
2023-12-03T03:36:33.624Z,78.52
2023-12-03T03:39:19.386Z,78.45
2023-12-03T03:42:04.906Z,78.42
2023-12-03T03:44:50.660Z,78.53
2023-12-03T03:47:37.487Z,78.49
2023-12-03T03:50:23.229Z,78.23
2023-12-03T03:53:08.564Z,78.10
2023-12-03T03:55:54.407Z,78.24
2023-12-03T03:58:39.601Z,78.21
2023-12-03T04:01:25.159Z,77.84
2023-12-03T04:04:10.879Z,77.96
2023-12-03T04:06:56.295Z,78.14
2023-12-03T04:09:41.450Z,77.84
2023-12-03T04:12:26.880Z,77.89
2023-12-03T04:15:12.280Z,78.01
2023-12-03T04:17:57.721Z,78.01
2023-12-03T04:20:43.264Z,78.37
2023-12-03T04:23:28.670Z,77.62
2023-12-03T04:26:15.636Z,77.86
2023-12-03T04:29:00.930Z,77.48
2023-12-03T04:31:48.308Z,77.56
2023-12-03T04:34:34.449Z,77.28
2023-12-03T04:37:19.673Z,77.34
2023-12-03T04:40:05.925Z,77.34
2023-12-03T04:42:51.323Z,77.00
2023-12-03T04:45:36.673Z,77.36
2023-12-03T04:48:22.153Z,76.77
2023-12-03T04:51:08.333Z,76.97
2023-12-03T04:53:53.548Z,77.08
2023-12-03T04:56:38.999Z,77.26
2023-12-03T04:59:24.339Z,77.00
2023-12-03T05:02:09.724Z,76.58
2023-12-03T05:04:55.085Z,76.79
2023-12-03T05:07:40.780Z,76.91
2023-12-03T05:10:25.926Z,76.89
2023-12-03T05:13:11.387Z,76.70
2023-12-03T05:15:56.810Z,76.61
2023-12-03T05:18:42.160Z,76.07
2023-12-03T05:21:27.653Z,76.62
2023-12-03T05:24:12.917Z,76.58
2023-12-03T05:26:58.362Z,76.60
2023-12-03T05:29:48.184Z,76.11
2023-12-03T05:32:33.294Z,76.56
2023-12-03T05:35:18.582Z,75.71
2023-12-03T05:38:04.038Z,76.03
2023-12-03T05:40:49.388Z,76.09
2023-12-03T05:43:34.696Z,76.20
2023-12-03T05:46:20.147Z,75.99
2023-12-03T05:49:05.789Z,76.38
2023-12-03T05:51:51.004Z,76.69
2023-12-03T05:54:36.348Z,76.72
2023-12-03T05:57:22.242Z,76.56
2023-12-03T06:00:07.845Z,76.76
2023-12-03T06:02:53.600Z,76.62
2023-12-03T06:05:39.086Z,76.76
2023-12-03T06:08:25.357Z,76.94
2023-12-03T06:11:11.792Z,77.13
2023-12-03T06:13:57.175Z,76.88
2023-12-03T06:16:42.314Z,77.21
2023-12-03T06:19:27.754Z,76.88
2023-12-03T06:22:13.016Z,76.84
2023-12-03T06:24:58.671Z,76.43
2023-12-03T06:27:44.738Z,76.83
2023-12-03T06:30:30.092Z,76.81
2023-12-03T06:33:18.298Z,76.58
2023-12-03T06:36:05.206Z,76.83
2023-12-03T06:38:50.653Z,76.66
2023-12-03T06:41:36.019Z,76.65
2023-12-03T06:44:31.098Z,76.83
2023-12-03T06:47:24.037Z,76.71
2023-12-03T06:50:09.262Z,76.96
2023-12-03T06:52:54.791Z,76.94
2023-12-03T06:55:40.059Z,76.84
2023-12-03T06:58:25.500Z,76.97
2023-12-03T07:01:13.558Z,77.31
2023-12-03T07:03:58.536Z,77.49
2023-12-03T07:06:44.230Z,77.67
2023-12-03T07:09:37.909Z,77.65
2023-12-03T07:12:25.751Z,77.65
2023-12-03T07:15:11.311Z,77.06
2023-12-03T07:17:58.470Z,77.36
2023-12-03T07:20:43.808Z,77.66
2023-12-03T07:23:29.192Z,77.39
2023-12-03T07:26:14.387Z,77.01
2023-12-03T07:28:59.361Z,77.24
2023-12-03T07:31:44.819Z,76.97
2023-12-03T07:34:30.102Z,76.71
2023-12-03T07:37:15.301Z,76.99
2023-12-03T07:40:00.688Z,76.77
2023-12-03T07:42:46.096Z,76.89
2023-12-03T07:45:31.252Z,76.81
2023-12-03T07:48:16.544Z,76.79
2023-12-03T07:51:01.745Z,76.39
2023-12-03T07:53:47.421Z,76.35
2023-12-03T07:56:39.859Z,76.35
2023-12-03T07:59:25.146Z,76.38
2023-12-03T08:02:10.519Z,76.66
2023-12-03T08:04:55.818Z,76.54
2023-12-03T08:07:41.298Z,76.88
2023-12-03T08:10:27.719Z,77.03
2023-12-03T08:13:13.215Z,77.31
2023-12-03T08:15:59.393Z,76.86
2023-12-03T08:18:47.906Z,76.99
2023-12-03T08:21:38.234Z,76.43
2023-12-03T08:24:23.399Z,76.72
2023-12-03T08:27:08.782Z,76.49
2023-12-03T08:29:54.304Z,76.40
2023-12-03T08:32:39.768Z,76.38
2023-12-03T08:35:25.595Z,76.72
2023-12-03T08:38:14.354Z,76.66
2023-12-03T08:41:00.792Z,76.44
2023-12-03T08:43:45.979Z,76.26
2023-12-03T08:46:32.690Z,76.26
2023-12-03T08:49:17.937Z,76.41
2023-12-03T08:52:04.720Z,76.51
2023-12-03T08:54:50.132Z,76.62
2023-12-03T08:57:36.642Z,76.40
2023-12-03T09:00:21.911Z,76.10
2023-12-03T09:03:07.550Z,76.35
2023-12-03T09:05:54.074Z,76.69
2023-12-03T09:08:42.866Z,76.48
2023-12-03T09:11:30.526Z,76.70
2023-12-03T09:14:16.092Z,77.14
2023-12-03T09:17:02.094Z,77.30
2023-12-03T09:19:47.367Z,76.61
2023-12-03T09:22:33.179Z,76.92
2023-12-03T09:25:18.546Z,77.16
2023-12-03T09:28:05.375Z,77.23
2023-12-03T09:30:50.751Z,76.69
2023-12-03T09:33:36.113Z,76.85
2023-12-03T09:36:21.642Z,77.30
2023-12-03T09:39:06.990Z,77.05
2023-12-03T09:41:54.731Z,76.86
2023-12-03T09:44:44.081Z,76.58
2023-12-03T09:47:35.221Z,76.08
2023-12-03T09:50:21.882Z,76.90
2023-12-03T09:53:11.148Z,76.85
2023-12-03T09:55:57.274Z,76.75
2023-12-03T09:58:47.364Z,76.44
2023-12-03T10:01:32.999Z,76.43
2023-12-03T10:04:18.971Z,76.16
2023-12-03T10:07:05.690Z,76.58
2023-12-03T10:09:54.198Z,76.14
2023-12-03T10:12:45.934Z,76.43
2023-12-03T10:15:31.499Z,76.16
2023-12-03T10:18:18.115Z,75.79
2023-12-03T10:21:10.292Z,75.64
2023-12-03T10:24:04.969Z,75.88
2023-12-03T10:26:53.040Z,75.79
2023-12-03T10:29:38.904Z,75.44
2023-12-03T10:32:24.747Z,75.14
2023-12-03T10:35:12.678Z,75.78
2023-12-03T10:37:58.227Z,75.47
2023-12-03T10:40:43.549Z,75.14
2023-12-03T10:43:28.720Z,75.29
2023-12-03T10:46:14.540Z,75.23
2023-12-03T10:49:01.158Z,75.44
2023-12-03T10:51:48.931Z,75.46
2023-12-03T10:54:35.849Z,75.07
2023-12-03T10:57:24.430Z,75.71
2023-12-03T11:00:13.648Z,75.80
2023-12-03T11:03:24.645Z,75.57
2023-12-03T11:06:13.920Z,75.66
2023-12-03T11:09:00.459Z,76.19
2023-12-03T11:11:47.176Z,75.73
2023-12-03T11:14:33.878Z,76.05
2023-12-03T11:17:34.069Z,75.92
2023-12-03T11:20:32.586Z,75.37
2023-12-03T11:23:34.477Z,75.74
2023-12-03T11:26:22.095Z,75.51
2023-12-03T11:29:08.542Z,75.42
2023-12-03T11:31:56.101Z,75.36
2023-12-03T11:34:42.875Z,75.83
2023-12-03T11:37:30.496Z,75.92
2023-12-03T11:40:35.025Z,75.87
2023-12-03T11:43:29.946Z,75.99
2023-12-03T11:46:15.732Z,76.22
2023-12-03T11:49:01.920Z,76.44
2023-12-03T11:51:49.136Z,76.09
2023-12-03T11:55:01.198Z,75.90
2023-12-03T11:57:47.761Z,75.99
2023-12-03T12:00:34.425Z,75.88
2023-12-03T12:03:21.767Z,76.37
2023-12-03T12:06:08.067Z,76.37
2023-12-03T12:08:57.549Z,75.79
2023-12-03T12:11:43.315Z,76.01
2023-12-03T12:14:28.665Z,76.11
2023-12-03T12:17:15.020Z,75.75
2023-12-03T12:20:08.871Z,75.44
2023-12-03T12:23:01.743Z,75.81
2023-12-03T12:25:46.970Z,75.51
2023-12-03T12:28:32.456Z,75.83
2023-12-03T12:31:25.098Z,75.75
2023-12-03T12:34:15.526Z,75.75
2023-12-03T12:37:09.771Z,75.99
2023-12-03T12:40:08.387Z,75.94
2023-12-03T12:43:14.339Z,75.70
2023-12-03T12:46:11.779Z,75.99
2023-12-03T12:49:15.425Z,75.56
2023-12-03T12:52:17.592Z,76.21
2023-12-03T12:55:07.575Z,75.92
2023-12-03T12:57:59.907Z,75.98
2023-12-03T13:00:46.586Z,75.78
2023-12-03T13:03:33.064Z,75.99
2023-12-03T13:06:22.356Z,75.84
2023-12-03T13:09:10.375Z,75.73
2023-12-03T13:11:56.258Z,75.71
2023-12-03T13:14:42.263Z,76.09
2023-12-03T13:17:30.390Z,76.12
2023-12-03T13:20:16.827Z,76.22
2023-12-03T13:23:03.112Z,75.21
2023-12-03T13:25:49.993Z,76.05
2023-12-03T13:28:37.683Z,76.26
2023-12-03T13:31:27.771Z,76.68
2023-12-03T13:34:13.912Z,76.51
2023-12-03T13:37:00.376Z,76.75
2023-12-03T13:39:47.367Z,76.65
2023-12-03T13:42:33.032Z,76.31
2023-12-03T13:45:22.174Z,76.35
2023-12-03T13:48:09.958Z,76.16
2023-12-03T13:50:56.471Z,75.77
2023-12-03T13:53:42.533Z,75.58
2023-12-03T13:56:30.465Z,76.23
2023-12-03T13:59:17.572Z,76.28
2023-12-03T14:02:04.461Z,75.73
2023-12-03T14:05:04.189Z,75.57
2023-12-03T14:08:01.528Z,75.44
2023-12-03T14:10:48.848Z,75.49
2023-12-03T14:13:39.102Z,75.16
2023-12-03T14:16:27.598Z,75.02
2023-12-03T14:19:15.196Z,74.80
2023-12-03T14:22:01.996Z,74.57
2023-12-03T14:24:48.577Z,73.81
2023-12-03T14:27:33.806Z,73.97
2023-12-03T14:30:19.233Z,73.53
2023-12-03T14:33:04.864Z,73.36
2023-12-03T14:35:53.349Z,73.65
2023-12-03T14:38:38.675Z,73.48
2023-12-03T14:41:26.358Z,73.21
2023-12-03T14:44:16.289Z,73.74
2023-12-03T14:47:02.142Z,73.37
2023-12-03T14:49:48.729Z,74.16
2023-12-03T14:52:36.985Z,73.89
2023-12-03T14:55:22.186Z,74.14
2023-12-03T14:58:07.238Z,74.27
2023-12-03T15:00:52.658Z,73.63
2023-12-03T15:03:40.370Z,73.84
2023-12-03T15:06:26.222Z,73.63
2023-12-03T15:09:12.724Z,73.64
2023-12-03T15:11:58.186Z,72.31
2023-12-03T15:14:43.553Z,73.03
2023-12-03T15:17:29.768Z,72.81
2023-12-03T15:20:16.566Z,73.14
2023-12-03T15:23:03.729Z,73.06
2023-12-03T15:25:52.642Z,72.83
2023-12-03T15:28:38.833Z,72.66
2023-12-03T15:31:24.424Z,72.77
2023-12-03T15:34:10.927Z,72.35
2023-12-03T15:36:57.823Z,72.29
2023-12-03T15:39:44.462Z,72.12
2023-12-03T15:42:30.114Z,72.98
2023-12-03T15:45:15.197Z,72.79
2023-12-03T15:48:03.176Z,72.64
2023-12-03T15:50:50.090Z,72.98
2023-12-03T15:53:35.210Z,73.08
2023-12-03T15:56:20.463Z,72.79
2023-12-03T15:59:06.232Z,73.08
2023-12-03T16:01:53.449Z,73.51
2023-12-03T16:04:39.709Z,73.08
2023-12-03T16:07:26.441Z,73.19
2023-12-03T16:10:19.513Z,73.00
2023-12-03T16:13:06.088Z,72.97
2023-12-03T16:15:52.729Z,73.30
2023-12-03T16:18:38.557Z,73.20
2023-12-03T16:21:24.551Z,73.30
2023-12-03T16:24:13.368Z,73.71
2023-12-03T16:26:59.485Z,73.71
2023-12-03T16:29:46.301Z,73.42
2023-12-03T16:32:32.531Z,73.59
2023-12-03T16:35:22.857Z,73.40
2023-12-03T16:38:08.838Z,73.92
2023-12-03T16:40:57.120Z,73.66
2023-12-03T16:43:43.761Z,73.97
2023-12-03T16:46:29.961Z,74.14
2023-12-03T16:49:16.573Z,74.03
2023-12-03T16:52:03.005Z,74.06
2023-12-03T16:54:49.183Z,74.67
2023-12-03T16:57:35.182Z,74.87
2023-12-03T17:00:22.134Z,75.15
2023-12-03T17:03:08.781Z,74.92
2023-12-03T17:05:56.182Z,74.99
2023-12-03T17:08:42.702Z,74.86
2023-12-03T17:11:28.581Z,74.84
2023-12-03T17:14:16.093Z,74.46
2023-12-03T17:17:02.752Z,74.86
2023-12-03T17:19:49.252Z,74.71
2023-12-03T17:22:36.344Z,74.27
2023-12-03T17:25:22.819Z,74.28
2023-12-03T17:28:09.367Z,74.42
2023-12-03T17:30:55.828Z,74.49
2023-12-03T17:33:42.231Z,74.49
2023-12-03T17:36:28.825Z,74.37
2023-12-03T17:39:15.722Z,74.42
2023-12-03T17:42:02.402Z,74.59
2023-12-03T17:44:48.575Z,74.70
2023-12-03T17:47:35.042Z,74.72
2023-12-03T17:50:22.267Z,74.89
2023-12-03T17:53:09.261Z,74.98
2023-12-03T17:55:56.700Z,75.03
2023-12-03T17:58:43.374Z,75.10
2023-12-03T18:01:29.600Z,74.99
2023-12-03T18:04:16.027Z,74.62
2023-12-03T18:07:02.472Z,74.51
2023-12-03T18:09:48.977Z,74.55
2023-12-03T18:12:35.752Z,74.84
2023-12-03T18:15:22.224Z,74.94
2023-12-03T18:18:08.648Z,75.03
2023-12-03T18:20:56.491Z,74.53
2023-12-03T18:23:43.404Z,74.73
2023-12-03T18:26:32.826Z,74.72
2023-12-03T18:29:19.842Z,74.41
2023-12-03T18:32:06.648Z,74.71
2023-12-03T18:34:53.451Z,74.63
2023-12-03T18:37:39.383Z,74.71
2023-12-03T18:40:25.565Z,74.96
2023-12-03T18:43:11.985Z,74.83
2023-12-03T18:46:00.721Z,74.80
2023-12-03T18:48:47.247Z,74.81
2023-12-03T18:51:34.270Z,74.95
2023-12-03T18:54:20.547Z,74.93
2023-12-03T18:57:07.238Z,74.87
2023-12-03T18:59:54.363Z,74.83
2023-12-03T19:02:44.960Z,74.75
2023-12-03T19:05:33.049Z,74.69
2023-12-03T19:08:20.324Z,74.62
2023-12-03T19:11:12.480Z,74.10
2023-12-03T19:13:58.800Z,74.24
2023-12-03T19:16:48.652Z,74.39
2023-12-03T19:19:35.939Z,74.35
2023-12-03T19:22:22.584Z,74.68
2023-12-03T19:25:09.678Z,75.01
2023-12-03T19:27:56.230Z,75.21
2023-12-03T19:30:43.141Z,74.77
2023-12-03T19:33:29.696Z,74.83
2023-12-03T19:36:18.451Z,74.71
2023-12-03T19:39:06.206Z,74.31
2023-12-03T19:41:53.990Z,74.48
2023-12-03T19:44:41.410Z,74.79
2023-12-03T19:47:27.665Z,74.46
2023-12-03T19:50:14.367Z,74.67
2023-12-03T19:53:00.781Z,74.46
2023-12-03T19:55:47.966Z,74.85
2023-12-03T19:58:34.263Z,75.02
2023-12-03T20:04:06.975Z,75.21
2023-12-03T20:06:54.561Z,75.32
2023-12-03T20:09:41.648Z,75.03
2023-12-03T20:12:32.064Z,74.97
2023-12-03T20:15:25.171Z,74.63
2023-12-03T20:18:15.440Z,74.60
2023-12-03T20:21:01.889Z,74.86
2023-12-03T20:23:50.848Z,74.49
2023-12-03T20:26:38.006Z,74.01
2023-12-03T20:29:25.435Z,74.14
2023-12-03T20:32:11.804Z,73.77
2023-12-03T20:34:58.669Z,73.68
2023-12-03T20:37:45.144Z,73.67
2023-12-03T20:40:31.544Z,73.42
2023-12-03T20:43:18.938Z,73.47
2023-12-03T20:46:05.073Z,73.84
2023-12-03T20:48:51.180Z,74.11
2023-12-03T20:51:37.697Z,73.81
2023-12-03T20:54:24.037Z,73.61
2023-12-03T20:57:10.436Z,73.51
2023-12-03T20:59:56.803Z,73.20
2023-12-03T21:02:43.089Z,73.29
2023-12-03T21:05:28.678Z,73.15
2023-12-03T21:08:14.741Z,73.29
2023-12-03T21:11:01.743Z,72.73
2023-12-03T21:13:47.832Z,72.96
2023-12-03T21:16:34.375Z,73.07
2023-12-03T21:19:21.149Z,73.01
2023-12-03T21:22:07.328Z,73.07
2023-12-03T21:24:53.280Z,72.82
2023-12-03T21:27:39.360Z,72.77
2023-12-03T21:30:31.321Z,72.67
2023-12-03T21:33:18.232Z,72.19
2023-12-03T21:36:04.621Z,71.83
2023-12-03T21:38:50.693Z,71.42
2023-12-03T21:41:36.686Z,71.79
2023-12-03T21:44:23.422Z,71.57
2023-12-03T21:47:08.805Z,71.69
2023-12-03T21:49:54.144Z,71.07
2023-12-03T21:52:39.558Z,71.13
2023-12-03T21:55:25.007Z,70.64
2023-12-03T21:58:10.918Z,70.50
2023-12-03T22:00:56.274Z,70.69
2023-12-03T22:03:41.872Z,70.35
2023-12-03T22:06:27.205Z,70.33
2023-12-03T22:09:13.337Z,70.03
2023-12-03T22:11:59.439Z,70.08
2023-12-03T22:14:44.850Z,69.98
2023-12-03T22:17:30.349Z,69.96
2023-12-03T22:20:15.776Z,70.03
2023-12-03T22:23:01.131Z,70.00
2023-12-03T22:25:46.965Z,70.04
2023-12-03T22:28:32.420Z,68.89
2023-12-03T22:31:20.847Z,69.82
2023-12-03T22:34:06.116Z,70.12
2023-12-03T22:36:51.602Z,70.05
2023-12-03T22:39:36.743Z,69.80
2023-12-03T22:42:22.219Z,69.64
2023-12-03T22:45:08.047Z,69.93
2023-12-03T22:47:53.303Z,69.99
2023-12-03T22:50:38.764Z,70.05
2023-12-03T22:53:24.049Z,69.41
2023-12-03T22:56:10.618Z,69.72
2023-12-03T22:58:56.042Z,69.54
2023-12-03T23:01:43.759Z,69.52
2023-12-03T23:04:29.420Z,69.44
2023-12-03T23:07:16.379Z,68.99
2023-12-03T23:10:01.771Z,69.23
2023-12-03T23:12:47.114Z,68.80
2023-12-03T23:15:32.749Z,68.80
2023-12-03T23:18:17.792Z,68.82
2023-12-03T23:21:03.278Z,68.40
2023-12-03T23:23:48.526Z,68.51
2023-12-03T23:26:41.153Z,68.29
2023-12-03T23:29:26.868Z,67.84
2023-12-03T23:32:15.121Z,67.93
2023-12-03T23:35:02.492Z,68.41
2023-12-03T23:37:47.618Z,68.26
2023-12-03T23:40:32.864Z,68.57
2023-12-03T23:43:18.304Z,68.26
2023-12-03T23:46:04.104Z,67.90
2023-12-03T23:48:49.682Z,67.97
2023-12-03T23:51:35.002Z,68.32
2023-12-03T23:54:20.410Z,67.74
2023-12-03T23:57:05.865Z,67.66
2023-12-03T23:59:51.261Z,67.78
